createdAt,value
2019-04-26T00:01:39.229Z,17.98
2019-04-26T00:04:09.294Z,17.99
2019-04-26T00:06:39.747Z,17.99
2019-04-26T00:09:22.534Z,17.96
2019-04-26T00:11:53.391Z,17.97
2019-04-26T00:14:26.816Z,17.89
2019-04-26T00:16:57.930Z,17.91
2019-04-26T00:19:27.436Z,17.89
2019-04-26T00:21:56.993Z,17.89
2019-04-26T00:24:28.471Z,17.92
2019-04-26T00:26:57.463Z,17.92
2019-04-26T00:29:26.696Z,17.94
2019-04-26T00:31:57.035Z,17.98
2019-04-26T00:34:26.283Z,18.03
2019-04-26T00:36:55.450Z,18.00
2019-04-26T00:39:25.092Z,17.94
2019-04-26T00:41:54.478Z,17.95
2019-04-26T00:44:23.840Z,17.94
2019-04-26T00:46:53.043Z,17.96
2019-04-26T00:49:23.262Z,17.94
2019-04-26T00:51:52.641Z,17.96
2019-04-26T00:54:22.314Z,17.77
2019-04-26T00:56:51.517Z,17.71
2019-04-26T00:59:21.006Z,17.66
2019-04-26T01:01:51.843Z,17.58
2019-04-26T01:04:21.549Z,17.64
2019-04-26T01:06:52.477Z,17.70
2019-04-26T01:09:22.025Z,17.71
2019-04-26T01:11:51.377Z,17.73
2019-04-26T01:14:20.726Z,17.76
2019-04-26T01:16:50.235Z,17.78
2019-04-26T01:19:20.319Z,17.78
2019-04-26T01:21:52.185Z,17.70
2019-04-26T01:24:21.464Z,17.62
2019-04-26T01:26:50.891Z,17.52
2019-04-26T01:29:20.323Z,17.47
2019-04-26T01:32:08.139Z,17.50
2019-04-26T01:34:37.975Z,17.51
2019-04-26T01:37:07.182Z,17.49
2019-04-26T01:39:38.091Z,17.52
2019-04-26T01:42:12.554Z,17.56
2019-04-26T01:45:03.186Z,17.52
2019-04-26T01:47:32.764Z,17.41
2019-04-26T01:50:01.971Z,17.28
2019-04-26T01:52:31.946Z,17.30
2019-04-26T01:55:02.312Z,17.30
2019-04-26T01:57:31.648Z,17.29
2019-04-26T02:00:08.512Z,17.28
2019-04-26T02:02:40.579Z,17.27
2019-04-26T02:05:14.326Z,17.22
2019-04-26T02:07:44.164Z,17.18
2019-04-26T02:10:15.746Z,17.16
2019-04-26T02:12:46.140Z,17.20
2019-04-26T02:15:16.015Z,17.22
2019-04-26T02:17:46.077Z,17.11
2019-04-26T02:20:18.853Z,17.10
2019-04-26T02:23:04.534Z,17.06
2019-04-26T02:25:34.284Z,17.06
2019-04-26T02:28:03.736Z,17.04
2019-04-26T02:30:34.667Z,17.07
2019-04-26T02:33:04.054Z,17.10
2019-04-26T02:35:35.872Z,17.14
2019-04-26T02:38:05.214Z,17.13
2019-04-26T02:40:35.033Z,17.17
2019-04-26T02:43:04.901Z,17.18
2019-04-26T02:45:47.613Z,17.19
2019-04-26T02:48:19.012Z,17.20
2019-04-26T02:50:53.186Z,17.16
2019-04-26T02:53:43.836Z,17.24
2019-04-26T02:56:19.016Z,17.32
2019-04-26T02:58:57.050Z,17.32
2019-04-26T03:01:29.311Z,17.35
2019-04-26T03:03:58.060Z,17.39
2019-04-26T03:06:30.032Z,17.46
2019-04-26T03:08:59.114Z,17.48
2019-04-26T03:11:33.368Z,17.49
2019-04-26T03:14:04.397Z,17.52
2019-04-26T03:16:52.580Z,17.53
2019-04-26T03:19:55.375Z,17.57
2019-04-26T03:22:31.925Z,17.53
2019-04-26T03:25:11.139Z,17.43
2019-04-26T03:28:03.921Z,17.48
2019-04-26T03:31:01.900Z,17.53
2019-04-26T03:33:52.579Z,17.53
2019-04-26T03:36:52.166Z,17.48
2019-04-26T03:39:34.256Z,17.42
2019-04-26T03:42:22.833Z,17.34
2019-04-26T03:45:04.145Z,17.37
2019-04-26T03:47:44.359Z,17.40
2019-04-26T03:50:16.167Z,17.40
2019-04-26T03:53:04.771Z,17.42
2019-04-26T03:55:43.678Z,17.45
2019-04-26T03:58:29.371Z,17.41
2019-04-26T04:01:00.320Z,17.39
2019-04-26T04:03:52.930Z,17.38
2019-04-26T04:06:24.360Z,17.43
2019-04-26T04:09:02.930Z,17.42
2019-04-26T04:11:40.847Z,17.45
2019-04-26T04:14:21.784Z,17.35
2019-04-26T04:16:59.200Z,17.30
2019-04-26T04:19:58.765Z,17.20
2019-04-26T04:22:40.718Z,17.18
2019-04-26T04:25:15.424Z,16.97
2019-04-26T04:27:53.878Z,17.00
2019-04-26T04:30:47.796Z,17.06
2019-04-26T04:33:36.243Z,17.07
2019-04-26T04:36:09.380Z,17.07
2019-04-26T04:38:51.350Z,17.17
2019-04-26T04:41:45.135Z,17.24
2019-04-26T04:44:28.257Z,17.23
2019-04-26T04:47:22.196Z,17.29
2019-04-26T04:49:56.357Z,17.24
2019-04-26T04:52:31.550Z,17.27
2019-04-26T04:55:14.713Z,17.24
2019-04-26T04:57:57.207Z,17.33
2019-04-26T05:00:38.481Z,17.38
2019-04-26T05:03:34.157Z,17.36
2019-04-26T05:06:23.874Z,17.34
2019-04-26T05:08:56.972Z,17.21
2019-04-26T05:11:32.478Z,17.20
2019-04-26T05:14:14.410Z,17.25
2019-04-26T05:17:08.425Z,17.35
2019-04-26T05:19:59.332Z,17.45
2019-04-26T05:22:38.435Z,17.51
2019-04-26T05:25:48.026Z,17.57
2019-04-26T05:28:49.608Z,17.59
2019-04-26T05:31:31.669Z,17.52
2019-04-26T05:34:15.064Z,17.48
2019-04-26T05:36:52.667Z,17.56
2019-04-26T05:39:31.447Z,17.53
2019-04-26T05:42:26.456Z,17.46
2019-04-26T05:45:15.678Z,17.42
2019-04-26T05:48:29.200Z,17.33
2019-04-26T05:51:18.488Z,17.32
2019-04-26T05:54:37.859Z,17.24
2019-04-26T05:57:12.259Z,17.29
2019-04-26T05:59:48.071Z,17.19
2019-04-26T06:02:46.965Z,17.25
2019-04-26T06:05:30.820Z,17.17
2019-04-26T06:08:31.195Z,17.12
2019-04-26T06:10:58.020Z,17.19
2019-04-26T06:13:52.179Z,17.18
2019-04-26T06:17:13.167Z,17.24
2019-04-26T06:19:57.264Z,17.30
2019-04-26T06:22:33.269Z,17.25
2019-04-26T06:25:25.277Z,17.36
2019-04-26T06:28:03.146Z,17.45
2019-04-26T06:30:45.849Z,17.41
2019-04-26T06:33:39.712Z,17.28
2019-04-26T06:36:11.557Z,17.27
2019-04-26T06:38:54.328Z,17.23
2019-04-26T06:42:02.891Z,17.33
2019-04-26T06:44:52.242Z,17.39
2019-04-26T06:47:41.644Z,17.20
2019-04-26T06:50:25.090Z,17.26
2019-04-26T06:53:26.362Z,17.37
2019-04-26T06:56:25.081Z,17.51
2019-04-26T06:59:10.349Z,17.66
2019-04-26T07:01:43.504Z,17.62
2019-04-26T07:04:36.956Z,17.67
2019-04-26T07:07:24.953Z,17.76
2019-04-26T07:10:06.297Z,17.84
2019-04-26T07:12:57.325Z,17.88
2019-04-26T07:15:51.671Z,17.97
2019-04-26T07:18:35.862Z,18.12
2019-04-26T07:21:19.454Z,18.13
2019-04-26T07:24:17.932Z,18.22
2019-04-26T07:27:03.340Z,18.36
2019-04-26T07:30:05.532Z,18.43
2019-04-26T07:33:13.677Z,18.47
2019-04-26T07:35:52.764Z,18.52
2019-04-26T07:38:49.764Z,18.58
2019-04-26T07:41:27.142Z,18.66
2019-04-26T07:44:25.968Z,18.61
2019-04-26T07:47:17.508Z,18.62
2019-04-26T07:50:14.658Z,18.54
2019-04-26T07:53:07.313Z,18.33
2019-04-26T07:55:56.969Z,18.31
2019-04-26T07:59:05.580Z,18.35
2019-04-26T08:02:00.782Z,18.49
2019-04-26T08:04:34.655Z,18.44
2019-04-26T08:07:10.691Z,18.47
2019-04-26T08:09:42.217Z,18.61
2019-04-26T08:12:14.790Z,18.72
2019-04-26T08:14:52.236Z,18.77
2019-04-26T08:17:30.655Z,18.80
2019-04-26T08:20:33.648Z,18.86
2019-04-26T08:23:09.033Z,18.94
2019-04-26T08:25:37.241Z,18.91
2019-04-26T08:28:08.411Z,18.99
2019-04-26T08:30:44.854Z,19.02
2019-04-26T08:33:14.653Z,19.09
2019-04-26T08:35:48.991Z,19.14
2019-04-26T08:38:22.339Z,19.20
2019-04-26T08:40:49.984Z,19.22
2019-04-26T08:43:21.266Z,19.23
2019-04-26T08:46:03.261Z,19.39
2019-04-26T08:48:39.575Z,19.49
2019-04-26T08:51:11.312Z,19.47
2019-04-26T08:53:41.834Z,19.42
2019-04-26T08:56:15.244Z,19.32
2019-04-26T08:58:44.700Z,19.29
2019-04-26T09:01:25.582Z,19.36
2019-04-26T09:03:59.718Z,19.46
2019-04-26T09:06:32.978Z,19.56
2019-04-26T09:09:04.207Z,19.81
2019-04-26T09:11:35.091Z,19.95
2019-04-26T09:14:06.575Z,20.02
2019-04-26T09:16:36.644Z,20.08
2019-04-26T09:19:06.466Z,20.24
2019-04-26T09:21:38.816Z,20.27
2019-04-26T09:24:14.640Z,20.41
2019-04-26T09:26:48.450Z,20.56
2019-04-26T09:29:19.976Z,20.66
2019-04-26T09:32:08.820Z,20.84
2019-04-26T09:34:44.332Z,20.97
2019-04-26T09:37:15.030Z,21.03
2019-04-26T09:39:45.443Z,21.30
2019-04-26T09:42:29.311Z,21.47
2019-04-26T09:45:16.699Z,21.75
2019-04-26T09:47:51.877Z,21.90
2019-04-26T09:50:26.798Z,22.15
2019-04-26T09:52:58.723Z,22.34
2019-04-26T09:55:35.641Z,22.33
2019-04-26T09:58:01.350Z,22.21
2019-04-26T10:00:32.292Z,22.04
2019-04-26T10:03:05.431Z,22.19
2019-04-26T10:05:34.585Z,22.76
2019-04-26T10:08:08.340Z,23.27
2019-04-26T10:10:38.486Z,23.44
2019-04-26T10:13:08.676Z,23.62
2019-04-26T10:15:40.461Z,23.64
2019-04-26T10:18:10.859Z,23.54
2019-04-26T10:20:41.068Z,23.30
2019-04-26T10:23:11.642Z,23.36
2019-04-26T10:25:42.355Z,24.27
2019-04-26T10:28:15.901Z,24.07
2019-04-26T10:30:45.489Z,23.81
2019-04-26T10:33:16.241Z,23.40
2019-04-26T10:35:46.768Z,22.91
2019-04-26T10:38:19.331Z,22.65
2019-04-26T10:40:52.076Z,22.49
2019-04-26T10:43:21.991Z,22.48
2019-04-26T10:45:54.018Z,22.81
2019-04-26T10:48:23.697Z,23.65
2019-04-26T10:50:54.316Z,24.32
2019-04-26T10:53:30.074Z,25.07
2019-04-26T10:56:12.188Z,25.90
2019-04-26T10:58:49.888Z,26.58
2019-04-26T11:01:21.855Z,27.07
2019-04-26T11:03:52.440Z,26.98
2019-04-26T11:06:24.134Z,26.50
2019-04-26T11:08:55.196Z,26.06
2019-04-26T11:11:25.563Z,25.82
2019-04-26T11:13:57.540Z,25.59
2019-04-26T11:16:27.791Z,25.37
2019-04-26T11:19:01.090Z,25.25
2019-04-26T11:21:30.769Z,25.67
2019-04-26T11:24:01.528Z,25.91
2019-04-26T11:26:34.782Z,26.11
2019-04-26T11:29:03.172Z,25.92
2019-04-26T11:31:33.429Z,25.84
2019-04-26T11:34:05.308Z,25.59
2019-04-26T11:36:37.568Z,25.64
2019-04-26T11:39:11.175Z,25.96
2019-04-26T11:41:41.671Z,25.98
2019-04-26T11:44:11.906Z,26.13
2019-04-26T11:46:44.971Z,27.42
2019-04-26T11:49:13.396Z,27.79
2019-04-26T11:51:47.009Z,28.48
2019-04-26T11:54:20.799Z,28.20
2019-04-26T11:56:50.445Z,27.68
2019-04-26T11:59:21.656Z,27.40
2019-04-26T12:01:53.298Z,27.65
2019-04-26T12:04:26.301Z,28.42
2019-04-26T12:06:59.156Z,29.32
2019-04-26T12:09:29.370Z,30.73
2019-04-26T12:12:04.674Z,30.88
2019-04-26T12:14:34.382Z,30.05
2019-04-26T12:17:06.532Z,29.62
2019-04-26T12:19:37.047Z,30.06
2019-04-26T12:22:08.475Z,31.18
2019-04-26T12:24:39.369Z,32.01
2019-04-26T12:27:10.494Z,31.98
2019-04-26T12:29:44.157Z,31.95
2019-04-26T12:32:13.927Z,32.08
2019-04-26T12:34:44.441Z,32.04
2019-04-26T12:37:19.913Z,30.81
2019-04-26T12:39:46.861Z,29.45
2019-04-26T12:42:18.595Z,28.53
2019-04-26T12:44:51.157Z,27.76
2019-04-26T12:47:23.433Z,27.09
2019-04-26T12:49:58.932Z,26.46
2019-04-26T12:52:27.512Z,25.87
2019-04-26T12:54:58.456Z,25.45
2019-04-26T12:57:29.299Z,25.07
2019-04-26T13:00:01.805Z,24.72
2019-04-26T13:02:33.572Z,24.62
2019-04-26T13:05:03.836Z,24.66
2019-04-26T13:07:35.120Z,24.92
2019-04-26T13:10:24.531Z,25.67
2019-04-26T13:13:12.247Z,26.35
2019-04-26T13:15:56.576Z,26.63
2019-04-26T13:18:27.266Z,27.56
2019-04-26T13:20:58.483Z,28.97
2019-04-26T13:23:31.437Z,30.12
2019-04-26T13:26:01.529Z,30.86
2019-04-26T13:28:32.292Z,31.34
2019-04-26T13:31:03.335Z,30.77
2019-04-26T13:33:33.836Z,29.87
2019-04-26T13:36:05.196Z,28.89
2019-04-26T13:38:39.322Z,28.12
2019-04-26T13:41:12.782Z,27.41
2019-04-26T13:43:44.739Z,26.75
2019-04-26T13:46:18.347Z,26.22
2019-04-26T13:48:54.456Z,25.90
2019-04-26T13:51:26.263Z,25.79
2019-04-26T13:53:58.060Z,25.74
2019-04-26T13:56:32.113Z,26.78
2019-04-26T13:59:02.463Z,27.88
2019-04-26T14:01:33.231Z,27.81
2019-04-26T14:04:07.006Z,27.94
2019-04-26T14:06:36.186Z,29.13
2019-04-26T14:09:09.173Z,28.93
2019-04-26T14:11:40.390Z,29.03
2019-04-26T14:14:10.637Z,29.24
2019-04-26T14:16:41.186Z,29.43
2019-04-26T14:19:15.518Z,29.71
2019-04-26T14:21:44.258Z,29.46
2019-04-26T14:24:31.158Z,29.20
2019-04-26T14:27:03.341Z,28.85
2019-04-26T14:29:33.994Z,28.66
2019-04-26T14:32:04.247Z,30.16
2019-04-26T14:34:36.184Z,31.42
2019-04-26T14:37:11.252Z,32.15
2019-04-26T14:39:50.137Z,33.28
2019-04-26T14:42:11.491Z,32.70
2019-04-26T14:44:49.298Z,31.75
2019-04-26T14:47:17.677Z,30.83
2019-04-26T14:49:45.832Z,31.08
2019-04-26T14:52:16.275Z,32.58
2019-04-26T14:54:48.735Z,33.96
2019-04-26T14:57:28.420Z,35.04
2019-04-26T15:00:00.262Z,35.62
2019-04-26T15:02:48.557Z,35.53
2019-04-26T15:05:22.234Z,35.15
2019-04-26T15:07:53.822Z,35.25
2019-04-26T15:10:26.486Z,35.63
2019-04-26T15:13:11.522Z,35.41
2019-04-26T15:15:33.207Z,35.79
2019-04-26T15:18:00.872Z,35.44
2019-04-26T15:20:32.664Z,35.14
2019-04-26T15:23:03.938Z,35.52
2019-04-26T15:25:36.751Z,35.62
2019-04-26T15:28:10.954Z,35.34
2019-04-26T15:30:43.393Z,34.91
2019-04-26T15:33:12.855Z,35.17
2019-04-26T15:35:42.162Z,34.94
2019-04-26T15:38:12.355Z,33.95
2019-04-26T15:40:50.576Z,33.65
2019-04-26T15:43:34.713Z,34.32
2019-04-26T15:46:24.241Z,34.96
2019-04-26T15:48:57.358Z,34.38
2019-04-26T15:51:29.360Z,33.36
2019-04-26T15:54:00.257Z,33.70
2019-04-26T15:56:32.092Z,34.34
2019-04-26T15:59:02.575Z,34.59
2019-04-26T16:01:33.315Z,34.82
2019-04-26T16:04:06.297Z,34.87
2019-04-26T16:06:41.916Z,34.75
2019-04-26T16:09:13.910Z,34.40
2019-04-26T16:11:49.414Z,33.13
2019-04-26T16:14:14.827Z,33.43
2019-04-26T16:16:45.142Z,32.63
2019-04-26T16:19:15.744Z,31.73
2019-04-26T16:21:48.165Z,31.09
2019-04-26T16:24:20.447Z,31.63
2019-04-26T16:26:54.061Z,32.22
2019-04-26T16:29:25.144Z,32.73
2019-04-26T16:32:04.875Z,33.04
2019-04-26T16:34:41.685Z,33.38
2019-04-26T16:37:15.017Z,33.48
2019-04-26T16:39:48.398Z,32.42
2019-04-26T16:42:15.840Z,31.51
2019-04-26T16:44:47.175Z,31.22
2019-04-26T16:47:18.313Z,30.86
2019-04-26T16:49:48.603Z,30.06
2019-04-26T16:52:18.641Z,29.40
2019-04-26T16:54:48.602Z,28.92
2019-04-26T16:57:19.774Z,28.45
2019-04-26T16:59:56.948Z,28.07
2019-04-26T17:02:26.411Z,27.69
2019-04-26T17:04:54.034Z,27.44
2019-04-26T17:07:27.359Z,27.20
2019-04-26T17:09:59.382Z,26.85
2019-04-26T17:12:28.681Z,26.46
2019-04-26T17:14:58.922Z,26.29
2019-04-26T17:17:30.671Z,26.19
2019-04-26T17:20:02.496Z,26.16
2019-04-26T17:22:58.466Z,26.03
2019-04-26T17:25:27.508Z,25.90
2019-04-26T17:27:57.965Z,25.76
2019-04-26T17:30:34.546Z,25.66
2019-04-26T17:33:02.991Z,25.64
2019-04-26T17:35:36.657Z,25.57
2019-04-26T17:38:06.038Z,25.51
2019-04-26T17:40:37.924Z,25.45
2019-04-26T17:43:10.876Z,25.40
2019-04-26T17:45:44.149Z,25.30
2019-04-26T17:48:14.252Z,25.14
2019-04-26T17:50:44.573Z,25.03
2019-04-26T17:53:28.141Z,24.86
2019-04-26T17:55:52.951Z,24.70
2019-04-26T17:58:27.572Z,24.57
2019-04-26T18:00:56.405Z,24.39
2019-04-26T18:03:26.901Z,24.32
2019-04-26T18:05:59.390Z,24.19
2019-04-26T18:08:40.631Z,24.05
2019-04-26T18:11:01.511Z,23.96
2019-04-26T18:13:32.153Z,23.87
2019-04-26T18:16:03.612Z,23.74
2019-04-26T18:18:40.562Z,23.62
2019-04-26T18:21:28.535Z,23.51
2019-04-26T18:24:00.803Z,23.38
2019-04-26T18:26:30.490Z,23.21
2019-04-26T18:29:00.687Z,23.06
2019-04-26T18:31:30.478Z,22.89
2019-04-26T18:34:01.728Z,22.79
2019-04-26T18:36:33.079Z,22.69
2019-04-26T18:39:03.987Z,22.63
2019-04-26T18:41:34.072Z,22.59
2019-04-26T18:44:05.275Z,22.55
2019-04-26T18:46:40.541Z,22.55
2019-04-26T18:49:13.844Z,22.55
2019-04-26T18:51:48.031Z,22.55
2019-04-26T18:54:17.694Z,22.54
2019-04-26T18:56:47.688Z,22.56
2019-04-26T18:59:17.736Z,22.57
2019-04-26T19:01:47.470Z,22.57
2019-04-26T19:04:17.049Z,22.58
2019-04-26T19:06:46.635Z,22.59
2019-04-26T19:09:17.664Z,22.56
2019-04-26T19:11:48.618Z,22.54
2019-04-26T19:14:48.590Z,22.51
2019-04-26T19:17:14.505Z,22.50
2019-04-26T19:20:03.293Z,22.48
2019-04-26T19:22:34.554Z,22.47
2019-04-26T19:25:03.592Z,22.42
2019-04-26T19:27:33.328Z,22.40
2019-04-26T19:30:09.187Z,22.36
2019-04-26T19:32:35.501Z,22.34
2019-04-26T19:35:09.263Z,22.34
2019-04-26T19:37:38.061Z,22.35
2019-04-26T19:40:09.189Z,22.35
2019-04-26T19:42:40.169Z,22.34
2019-04-26T19:45:17.290Z,22.28
2019-04-26T19:47:44.160Z,22.25
2019-04-26T19:50:15.327Z,22.26
2019-04-26T19:52:46.158Z,22.27
2019-04-26T19:55:32.465Z,22.13
2019-04-26T19:58:09.576Z,22.04
2019-04-26T20:00:38.465Z,21.85
2019-04-26T20:03:12.806Z,21.74
2019-04-26T20:05:43.968Z,21.63
2019-04-26T20:08:12.170Z,21.47
2019-04-26T20:10:45.494Z,21.45
2019-04-26T20:13:15.042Z,21.34
2019-04-26T20:15:43.369Z,21.26
2019-04-26T20:18:13.939Z,21.22
2019-04-26T20:20:43.496Z,21.08
2019-04-26T20:23:13.008Z,21.06
2019-04-26T20:25:42.241Z,21.00
2019-04-26T20:28:12.184Z,21.00
2019-04-26T20:31:05.903Z,20.94
2019-04-26T20:33:34.972Z,20.92
2019-04-26T20:36:04.803Z,20.88
2019-04-26T20:38:42.690Z,20.80
2019-04-26T20:41:04.666Z,20.80
2019-04-26T20:43:36.901Z,20.85
2019-04-26T20:46:14.007Z,20.88
2019-04-26T20:48:37.705Z,20.85
2019-04-26T20:51:11.013Z,20.89
2019-04-26T20:53:41.036Z,20.94
2019-04-26T20:56:16.083Z,21.01
2019-04-26T20:58:43.241Z,21.00
2019-04-26T21:01:14.086Z,20.98
2019-04-26T21:03:45.951Z,21.02
2019-04-26T21:06:13.759Z,20.96
2019-04-26T21:08:42.903Z,20.91
2019-04-26T21:11:13.764Z,20.86
2019-04-26T21:13:44.072Z,20.89
2019-04-26T21:16:15.441Z,20.96
2019-04-26T21:18:44.580Z,21.01
2019-04-26T21:21:15.999Z,21.05
2019-04-26T21:23:46.433Z,20.94
2019-04-26T21:26:21.683Z,20.82
2019-04-26T21:29:03.208Z,20.70
2019-04-26T21:31:41.025Z,20.65
2019-04-26T21:34:18.204Z,20.61
2019-04-26T21:36:58.129Z,20.58
2019-04-26T21:39:47.631Z,20.59
2019-04-26T21:42:17.291Z,20.54
2019-04-26T21:44:51.589Z,20.45
2019-04-26T21:47:18.249Z,20.25
2019-04-26T21:49:47.583Z,20.28
2019-04-26T21:52:16.785Z,20.28
2019-04-26T21:54:48.445Z,20.31
2019-04-26T21:57:18.292Z,20.36
2019-04-26T21:59:47.967Z,20.43
2019-04-26T22:02:18.167Z,20.48
2019-04-26T22:04:47.403Z,20.48
2019-04-26T22:07:16.589Z,20.41
2019-04-26T22:10:01.188Z,20.33
2019-04-26T22:12:31.198Z,20.29
2019-04-26T22:15:18.229Z,20.18
2019-04-26T22:17:52.945Z,20.09
2019-04-26T22:20:33.690Z,20.03
2019-04-26T22:23:16.339Z,19.89
2019-04-26T22:25:46.070Z,19.86
2019-04-26T22:28:15.413Z,19.75
2019-04-26T22:30:44.697Z,19.70
2019-04-26T22:33:14.189Z,19.70
2019-04-26T22:35:43.483Z,19.70
2019-04-26T22:38:12.960Z,19.65
2019-04-26T22:40:43.703Z,19.57
2019-04-26T22:43:30.541Z,19.55
2019-04-26T22:46:03.184Z,19.48
2019-04-26T22:48:44.154Z,19.35
2019-04-26T22:51:14.014Z,19.30
2019-04-26T22:53:43.453Z,19.22
2019-04-26T22:56:13.368Z,19.22
2019-04-26T22:58:44.152Z,19.25
2019-04-26T23:01:14.102Z,19.21
2019-04-26T23:03:46.368Z,19.14
2019-04-26T23:06:15.347Z,19.03
2019-04-26T23:08:44.593Z,18.96
2019-04-26T23:11:14.040Z,18.94
2019-04-26T23:13:55.749Z,18.93
2019-04-26T23:16:33.599Z,18.92
2019-04-26T23:19:20.566Z,18.82
2019-04-26T23:21:57.540Z,18.76
2019-04-26T23:24:26.909Z,18.63
2019-04-26T23:26:56.178Z,18.52
2019-04-26T23:29:25.316Z,18.45
2019-04-26T23:31:55.523Z,18.46
2019-04-26T23:34:25.303Z,18.50
2019-04-26T23:36:54.811Z,18.50
2019-04-26T23:39:24.642Z,18.52
2019-04-26T23:41:56.754Z,18.52
2019-04-26T23:44:26.331Z,18.50
2019-04-26T23:47:01.242Z,18.49
2019-04-26T23:49:28.274Z,18.50
2019-04-26T23:51:57.492Z,18.48
2019-04-26T23:54:28.075Z,18.47
2019-04-26T23:56:58.877Z,18.45
2019-04-26T23:59:28.170Z,18.33
